Time;durP1;ratioP1;P1;durP2;ratioP2;P2;SDS_P1;SDS_P2;PMS_P1;PMS_P2;Temp;Humidity;BMP_temperature;BMP_pressure;BME280_temperature;BME280_humidity;BME280_pressure;Samples;Min_cycle;Max_cycle;Signal;HPM_P1;HPM_P2
2024/02/20 00:00:09;;;;;;;;;1.00;1.00;;;;;22.90;44.66;103058.69;6400417;22;45318;-78
2024/02/20 00:02:35;;;;;;;;;2.33;1.00;;;;;22.93;45.05;103053.09;6400440;22;45373;-77
2024/02/20 00:05:01;;;;;;;;;3.33;1.00;;;;;22.92;45.15;103062.91;6399993;22;46087;-77
2024/02/20 00:07:27;;;;;;;;;0.00;0.00;;;;;22.92;44.57;103065.56;6400472;22;45252;-77
2024/02/20 00:09:52;;;;;;;;;4.00;1.00;;;;;22.64;45.22;103017.44;6400734;22;45192;-77
2024/02/20 00:12:18;;;;;;;;;2.00;2.00;;;;;22.91;44.82;103071.81;6399731;22;45386;-77
2024/02/20 00:14:43;;;;;;;;;2.00;1.00;;;;;22.88;44.95;103071.22;6400325;22;47051;-78
2024/02/20 00:17:09;;;;;;;;;4.00;2.00;;;;;22.84;44.63;103060.06;6400392;22;45275;-78
2024/02/20 00:19:34;;;;;;;;;2.00;2.00;;;;;22.90;45.17;103071.97;6400461;22;45660;-77
2024/02/20 00:21:59;;;;;;;;;1.33;1.33;;;;;22.81;44.85;103057.66;6400899;22;45350;-77
2024/02/20 00:24:25;;;;;;;;;1.00;1.00;;;;;22.71;44.76;103047.84;6400319;22;50884;-78
2024/02/20 00:26:50;;;;;;;;;1.00;1.00;;;;;22.88;45.14;103068.59;6399764;22;47511;-77
2024/02/20 00:29:15;;;;;;;;;1.00;1.00;;;;;22.74;45.04;103041.44;6401012;22;45246;-78
2024/02/20 00:31:40;;;;;;;;;4.33;1.67;;;;;22.88;44.79;103069.44;6400514;22;45299;-77
2024/02/20 00:34:06;;;;;;;;;2.67;1.00;;;;;22.74;45.05;103052.06;6400603;22;45349;-77
2024/02/20 00:36:31;;;;;;;;;1.33;1.00;;;;;22.89;44.65;103075.59;6399950;22;55837;-77
2024/02/20 00:38:56;;;;;;;;;2.00;1.00;;;;;22.78;44.82;103058.75;6400466;22;45184;-77
2024/02/20 00:41:22;;;;;;;;;2.00;1.00;;;;;22.76;44.63;103055.41;6400150;22;45255;-78
2024/02/20 00:43:48;;;;;;;;;1.00;1.00;;;;;22.78;44.73;103064.06;6400095;22;45922;-78
2024/02/20 00:46:20;;;;;;;;;6.00;2.00;;;;;22.88;45.05;103080.03;6400566;22;45406;-79
2024/02/20 00:48:47;;;;;;;;;1.67;1.33;;;;;22.88;44.66;103069.44;6371428;22;45327;-77
2024/02/20 00:51:16;;;;;;;;;3.00;1.67;;;;;22.80;44.82;103053.31;6400257;22;45371;-77
2024/02/20 00:53:42;;;;;;;;;1.00;1.00;;;;;22.77;44.37;103050.94;6399913;22;46079;-77
2024/02/20 00:56:07;;;;;;;;;4.00;0.33;;;;;22.80;45.04;103058.63;6400072;22;45249;-76
2024/02/20 00:58:33;;;;;;;;;2.00;1.00;;;;;22.78;44.66;103061.41;6400446;22;45272;-77
2024/02/20 01:00:58;;;;;;;;;2.33;2.00;;;;;22.87;44.65;103080.19;6400734;22;45210;-77
2024/02/20 01:03:24;;;;;;;;;6.67;2.00;;;;;22.87;44.77;103089.00;6400480;22;45301;-77
2024/02/20 01:05:49;;;;;;;;;1.33;1.00;;;;;22.87;44.89;103078.38;6400364;22;45324;-77
2024/02/20 01:08:14;;;;;;;;;1.33;1.33;;;;;22.87;44.40;103073.06;6400382;22;45214;-78
2024/02/20 01:10:40;;;;;;;;;2.00;0.00;;;;;22.88;44.70;103073.88;6399538;22;58445;-76
2024/02/20 01:13:06;;;;;;;;;1.00;1.00;;;;;22.87;44.58;103072.22;6400303;22;45403;-77
2024/02/20 01:15:31;;;;;;;;;2.00;2.00;;;;;22.86;44.92;103074.03;6399993;22;45310;-78
2024/02/20 01:17:57;;;;;;;;;1.00;1.00;;;;;22.87;44.99;103073.06;6400186;22;45220;-77
2024/02/20 01:20:22;;;;;;;;;3.00;1.67;;;;;22.85;44.25;103059.91;6400557;22;45273;-78
2024/02/20 01:22:49;;;;;;;;;4.00;3.00;;;;;22.81;44.44;103055.84;6400000;22;51250;-77
2024/02/20 01:25:15;;;;;;;;;2.67;2.00;;;;;22.85;44.95;103061.72;6399487;22;45151;-77
2024/02/20 01:27:40;;;;;;;;;4.33;1.67;;;;;22.71;44.51;103031.06;6400452;22;45239;-78
2024/02/20 01:30:07;;;;;;;;;1.00;1.00;;;;;22.55;44.36;103012.94;6400767;22;45132;-77
2024/02/20 01:32:33;;;;;;;;;1.33;1.33;;;;;22.84;44.65;103060.06;6400236;22;45226;-78
2024/02/20 01:34:58;;;;;;;;;2.00;1.33;;;;;22.84;44.35;103052.09;6400240;22;45524;-77
2024/02/20 01:37:24;;;;;;;;;1.33;0.00;;;;;22.83;44.81;103059.22;6400251;22;45268;-77
2024/02/20 01:39:49;;;;;;;;;1.00;1.00;;;;;22.83;44.94;103064.53;6399490;22;45446;-77
2024/02/20 01:42:14;;;;;;;;;1.00;1.00;;;;;22.83;45.02;103053.06;6399627;22;47363;-77
2024/02/20 01:44:40;;;;;;;;;1.33;1.33;;;;;22.61;44.45;103001.81;6400436;22;45274;-77
2024/02/20 01:47:05;;;;;;;;;2.67;1.00;;;;;22.67;44.76;103017.19;6400431;22;45281;-78
2024/02/20 01:49:31;;;;;;;;;3.67;2.00;;;;;22.82;44.69;103046.09;6400421;22;45328;-77
2024/02/20 01:51:58;;;;;;;;;1.00;1.00;;;;;22.80;44.80;103046.19;6399689;22;46062;-77
2024/02/20 01:54:24;;;;;;;;;1.00;1.00;;;;;22.81;44.39;103055.84;6399291;22;45285;-77
2024/02/20 01:56:52;;;;;;;;;3.00;1.00;;;;;22.83;44.70;103053.06;6400363;22;45310;-77
2024/02/20 01:59:17;;;;;;;;;4.00;2.00;;;;;22.69;44.58;103028.50;6399961;22;45323;-77
2024/02/20 02:01:42;;;;;;;;;1.00;1.00;;;;;22.78;44.28;103037.53;6400058;22;45165;-77
2024/02/20 02:04:08;;;;;;;;;2.00;2.00;;;;;22.83;44.66;103047.75;6399687;22;45264;-77
2024/02/20 02:06:37;;;;;;;;;4.00;1.00;;;;;22.70;44.36;103035.53;6400266;22;45476;-78
2024/02/20 02:09:03;;;;;;;;;4.00;1.00;;;;;22.63;44.09;103021.09;6399554;22;45236;-77
2024/02/20 02:11:28;;;;;;;;;1.00;1.00;;;;;22.73;44.60;103045.91;6399231;22;50583;-76
2024/02/20 02:13:54;;;;;;;;;0.67;0.67;;;;;22.82;44.40;103054.06;6399466;22;45160;-77
2024/02/20 02:16:19;;;;;;;;;1.33;1.00;;;;;22.83;44.78;103063.69;6400009;22;45215;-78
2024/02/20 02:18:45;;;;;;;;;2.33;2.33;;;;;22.67;44.63;103033.09;6400304;22;45095;-77
2024/02/20 02:21:10;;;;;;;;;2.33;1.33;;;;;22.82;44.23;103054.06;6399937;22;45154;-78
2024/02/20 02:23:35;;;;;;;;;2.00;2.00;;;;;22.81;44.56;103053.19;6399677;22;45189;-77
2024/02/20 02:26:01;;;;;;;;;1.00;1.00;;;;;22.77;44.58;103041.16;6400243;22;45284;-77
2024/02/20 02:28:26;;;;;;;;;1.00;1.00;;;;;22.69;44.28;103030.34;6400165;22;45299;-77
2024/02/20 02:30:51;;;;;;;;;2.00;2.00;;;;;22.68;44.52;103020.69;6370525;22;61999;-77
2024/02/20 02:33:16;;;;;;;;;1.00;1.00;;;;;22.80;44.64;103046.19;6399455;22;55154;-78
2024/02/20 02:35:42;;;;;;;;;1.67;1.67;;;;;22.82;44.26;103032.81;6400227;22;45199;-77
2024/02/20 02:38:07;;;;;;;;;1.00;1.00;;;;;22.81;44.28;103031.97;6399711;22;45203;-77
2024/02/20 02:40:32;;;;;;;;;3.67;2.00;;;;;22.78;44.66;103026.06;6399367;22;46839;-78
2024/02/20 02:42:58;;;;;;;;;4.00;2.00;;;;;22.59;44.40;103004.56;6399339;22;45280;-78
2024/02/20 02:45:23;;;;;;;;;2.33;2.00;;;;;22.79;44.78;103022.47;6399725;22;47689;-77
2024/02/20 02:47:50;;;;;;;;;1.67;1.00;;;;;22.68;44.66;103007.41;6399908;22;45481;-77
2024/02/20 02:50:15;;;;;;;;;1.67;1.67;;;;;22.62;44.69;102999.03;6399647;22;46137;-77
2024/02/20 02:52:42;;;;;;;;;0.33;0.33;;;;;22.80;44.06;103024.13;6399281;22;45338;-77
2024/02/20 02:55:07;;;;;;;;;2.00;1.67;;;;;22.70;44.09;103013.47;6399821;22;45306;-77
2024/02/20 02:57:33;;;;;;;;;4.00;2.33;;;;;22.80;44.11;103024.13;6399202;22;45275;-78
2024/02/20 02:59:58;;;;;;;;;3.67;2.00;;;;;22.71;44.31;103008.03;6399332;22;46087;-77
2024/02/20 03:02:24;;;;;;;;;6.33;2.00;;;;;22.71;44.59;103007.19;6399787;22;45369;-77
2024/02/20 03:04:50;;;;;;;;;2.00;1.00;;;;;22.79;44.18;103017.16;6400899;22;45421;-77
2024/02/20 03:07:15;;;;;;;;;3.00;2.00;;;;;22.70;44.66;102995.75;6400674;22;45332;-77
2024/02/20 03:09:40;;;;;;;;;5.33;3.00;;;;;22.78;44.54;103011.00;6400881;22;46216;-78
2024/02/20 03:12:06;;;;;;;;;2.00;1.00;;;;;22.79;44.76;103010.03;6401078;22;45220;-77
2024/02/20 03:14:31;;;;;;;;;5.00;2.00;;;;;22.76;44.45;103007.66;6372284;22;45242;-77
2024/02/20 03:16:56;;;;;;;;;2.00;2.00;;;;;22.45;44.05;102960.69;6401182;22;45219;-77
2024/02/20 03:19:22;;;;;;;;;1.67;1.67;;;;;22.77;44.30;103008.50;6400430;22;60277;-77
2024/02/20 03:21:47;;;;;;;;;4.00;3.00;;;;;22.74;44.09;102999.78;6400471;22;45417;-76
2024/02/20 03:24:12;;;;;;;;;2.33;2.00;;;;;22.79;44.21;103012.69;6400947;22;48090;-77
2024/02/20 03:26:39;;;;;;;;;1.33;1.33;;;;;22.80;44.60;103010.84;6400909;22;45222;-77
2024/02/20 03:29:04;;;;;;;;;2.33;2.33;;;;;22.60;44.06;102977.09;6400608;22;46161;-77
2024/02/20 03:31:29;;;;;;;;;3.67;2.00;;;;;22.68;44.35;102986.19;6401024;22;45346;-77
2024/02/20 03:33:55;;;;;;;;;2.00;1.00;;;;;22.78;43.97;103000.38;6372365;22;45256;-77
2024/02/20 03:36:20;;;;;;;;;3.00;2.00;;;;;22.67;44.58;102980.03;6400126;22;45333;-77
2024/02/20 03:38:46;;;;;;;;;2.00;2.00;;;;;22.80;44.52;103005.53;6400683;22;45911;-77
2024/02/20 03:41:12;;;;;;;;;2.00;2.00;;;;;22.66;44.27;102982.84;6400826;22;45419;-77
2024/02/20 03:43:37;;;;;;;;;4.00;1.00;;;;;22.65;44.70;102982.00;6400398;22;45380;-77
2024/02/20 03:46:03;;;;;;;;;2.33;2.00;;;;;22.69;44.08;102995.84;6400273;22;47629;-77
2024/02/20 03:48:29;;;;;;;;;1.33;1.33;;;;;22.71;44.22;102992.13;6400448;22;46252;-77
2024/02/20 03:50:55;;;;;;;;;6.33;3.67;;;;;22.73;44.26;102992.81;6399864;22;45265;-77
2024/02/20 03:53:20;;;;;;;;;3.00;2.00;;;;;22.79;44.27;103001.22;6400615;22;45162;-76
2024/02/20 03:55:45;;;;;;;;;2.67;2.00;;;;;22.53;44.63;102954.72;6400230;22;56603;-77
2024/02/20 03:58:11;;;;;;;;;3.00;1.67;;;;;22.80;44.65;103000.25;6399679;22;61647;-77
2024/02/20 04:00:36;;;;;;;;;2.00;2.00;;;;;22.79;44.33;102999.41;6400416;22;45300;-77
2024/02/20 04:03:01;;;;;;;;;1.00;1.00;;;;;22.67;44.49;102977.38;6400670;22;45243;-77
2024/02/20 04:05:27;;;;;;;;;2.00;2.00;;;;;22.68;44.68;102980.88;6371696;22;45444;-77
2024/02/20 04:07:53;;;;;;;;;3.67;2.00;;;;;22.76;44.31;102994.38;6400618;22;46336;-77
2024/02/20 04:10:19;;;;;;;;;1.33;1.33;;;;;22.78;44.44;102997.72;6400383;22;45322;-77
2024/02/20 04:12:44;;;;;;;;;3.33;2.00;;;;;22.66;44.31;102975.72;6371915;22;45328;-77
2024/02/20 04:15:12;;;;;;;;;3.33;3.00;;;;;22.78;44.53;102989.78;6400042;22;45469;-76
2024/02/20 04:17:37;;;;;;;;;1.67;1.00;;;;;22.63;44.16;102965.38;6399767;22;46884;-77
2024/02/20 04:20:05;;;;;;;;;3.67;2.00;;;;;22.78;44.20;102994.22;6400193;22;45417;-77
2024/02/20 04:22:31;;;;;;;;;2.33;2.33;;;;;22.74;44.66;102972.44;6400252;22;45219;-76
2024/02/20 04:25:00;;;;;;;;;3.00;2.00;;;;;22.77;44.47;102976.63;6400198;22;45260;-77
2024/02/20 04:27:27;;;;;;;;;4.00;2.00;;;;;22.77;44.53;102972.16;6400622;22;45634;-76
2024/02/20 04:29:52;;;;;;;;;4.00;2.00;;;;;22.77;44.08;102971.34;6400524;22;45326;-77
2024/02/20 04:32:19;;;;;;;;;5.00;2.67;;;;;22.77;44.22;102966.84;6400638;22;45268;-77
2024/02/20 04:34:44;;;;;;;;;2.67;2.67;;;;;22.78;44.38;102967.69;6400281;22;45534;-77
2024/02/20 04:37:09;;;;;;;;;4.00;2.00;;;;;22.72;44.30;102958.44;6400448;22;45475;-76
2024/02/20 04:39:35;;;;;;;;;4.67;3.00;;;;;22.65;43.92;102952.81;6400569;22;45148;-77
2024/02/20 04:42:00;;;;;;;;;3.00;3.00;;;;;22.79;43.89;102969.38;6400807;22;45205;-76
2024/02/20 04:44:25;;;;;;;;;4.67;3.00;;;;;22.69;44.18;102962.16;6400027;22;45227;-77
2024/02/20 04:46:51;;;;;;;;;5.00;3.67;;;;;22.79;43.76;102980.84;6399474;22;55326;-77
2024/02/20 04:49:16;;;;;;;;;3.00;3.00;;;;;22.79;43.91;102991.47;6400804;22;45294;-76
2024/02/20 04:51:42;;;;;;;;;4.00;3.00;;;;;22.61;44.15;102954.88;6400223;22;45249;-76
2024/02/20 04:54:08;;;;;;;;;3.00;3.00;;;;;22.79;43.88;102980.84;6400365;22;49662;-76
2024/02/20 04:56:33;;;;;;;;;4.00;2.33;;;;;22.79;43.90;102998.56;6399904;22;45317;-76
2024/02/20 04:58:59;;;;;;;;;5.00;3.00;;;;;22.79;43.76;103002.06;6400338;22;45281;-76
2024/02/20 05:01:24;;;;;;;;;5.67;2.00;;;;;22.68;44.03;102986.19;6399716;22;54494;-76
2024/02/20 05:03:49;;;;;;;;;4.00;4.00;;;;;22.78;44.19;103005.69;6400510;22;45286;-76
2024/02/20 05:06:15;;;;;;;;;4.67;4.00;;;;;22.79;44.07;103003.88;6400299;22;45670;-77
2024/02/20 05:08:41;;;;;;;;;2.67;2.67;;;;;22.78;43.81;102996.88;6372427;22;45362;-77
2024/02/20 05:11:06;;;;;;;;;3.00;3.00;;;;;22.79;44.20;102999.41;6400001;22;45421;-76
2024/02/20 05:13:32;;;;;;;;;2.33;2.00;;;;;22.78;44.17;103011.00;6400163;22;45476;-76
2024/02/20 05:15:57;;;;;;;;;3.00;1.67;;;;;22.78;44.04;103005.69;6399403;22;46992;-77
2024/02/20 05:18:22;;;;;;;;;2.33;2.33;;;;;22.78;44.20;103010.16;6400389;22;45318;-76
2024/02/20 05:20:48;;;;;;;;;2.00;2.00;;;;;22.77;43.88;103011.16;6400243;22;49824;-77
2024/02/20 05:23:13;;;;;;;;;2.67;2.00;;;;;22.68;44.17;102997.66;6400498;22;45366;-77
2024/02/20 05:25:38;;;;;;;;;6.33;4.00;;;;;22.58;44.32;102983.50;6399761;22;46342;-76
2024/02/20 05:28:04;;;;;;;;;3.33;3.00;;;;;22.74;44.26;103005.09;6399731;22;48124;-76
2024/02/20 05:30:29;;;;;;;;;2.00;2.00;;;;;22.70;43.95;102998.38;6400126;22;45366;-76
2024/02/20 05:32:54;;;;;;;;;2.67;2.67;;;;;22.76;44.26;103007.66;6400247;22;45383;-77
2024/02/20 05:35:20;;;;;;;;;3.67;3.00;;;;;22.38;43.90;102943.59;6400456;22;45720;-77
2024/02/20 05:37:46;;;;;;;;;6.00;2.00;;;;;22.77;43.93;103009.31;6399995;22;45283;-76
2024/02/20 05:40:12;;;;;;;;;2.67;2.67;;;;;22.76;44.30;103010.28;6400096;22;45224;-77
2024/02/20 05:42:38;;;;;;;;;6.00;2.00;;;;;22.76;44.08;102997.03;6371366;22;45240;-77
2024/02/20 05:45:05;;;;;;;;;3.67;3.00;;;;;22.77;43.82;103003.19;6399114;22;46204;-77
2024/02/20 05:47:32;;;;;;;;;2.00;2.00;;;;;22.76;44.04;103006.78;6399827;22;45352;-76
2024/02/20 05:49:57;;;;;;;;;2.67;2.67;;;;;22.64;44.32;102982.94;6399958;22;45229;-77
2024/02/20 05:52:22;;;;;;;;;2.67;2.33;;;;;22.72;44.24;102992.94;6399945;22;45238;-77
2024/02/20 05:54:48;;;;;;;;;4.00;4.00;;;;;22.76;44.27;102986.41;6400195;22;45727;-77
2024/02/20 05:57:13;;;;;;;;;5.00;4.00;;;;;22.63;43.89;102968.88;6399195;22;65201;-77
2024/02/20 05:59:38;;;;;;;;;6.00;3.00;;;;;22.75;43.74;102990.03;6399679;22;45211;-77
2024/02/20 06:02:03;;;;;;;;;5.67;3.67;;;;;22.71;44.29;102986.81;6400223;22;45124;-77
2024/02/20 06:04:29;;;;;;;;;5.00;4.00;;;;;22.72;43.93;102982.31;6399066;22;66563;-78
2024/02/20 06:06:54;;;;;;;;;4.00;3.00;;;;;22.76;43.93;102986.41;6399969;22;45256;-78
2024/02/20 06:09:19;;;;;;;;;3.00;3.00;;;;;22.62;43.61;102953.06;6399980;22;45389;-77
2024/02/20 06:11:45;;;;;;;;;5.67;5.00;;;;;22.77;43.69;102988.06;6399777;22;45522;-78
2024/02/20 06:14:10;;;;;;;;;4.33;3.00;;;;;22.76;44.23;102989.06;6399643;22;45325;-77
2024/02/20 06:16:35;;;;;;;;;4.00;2.67;;;;;22.45;44.16;102936.81;6399476;22;45322;-77
2024/02/20 06:19:01;;;;;;;;;6.67;3.00;;;;;22.77;44.15;102989.91;6399788;22;46189;-78
2024/02/20 06:21:26;;;;;;;;;5.00;3.00;;;;;22.78;43.95;102991.56;6399697;22;45415;-78
2024/02/20 06:23:51;;;;;;;;;4.00;2.67;;;;;22.77;43.71;102990.72;6399610;22;46176;-77
2024/02/20 06:26:19;;;;;;;;;3.00;3.00;;;;;22.72;43.63;102977.00;6399143;22;57669;-77
2024/02/20 06:28:45;;;;;;;;;3.67;3.67;;;;;22.70;43.94;102977.16;6399701;22;45259;-77
2024/02/20 06:31:10;;;;;;;;;4.00;3.00;;;;;22.67;44.05;102979.19;6399580;22;45501;-78
2024/02/20 06:33:36;;;;;;;;;6.00;3.67;;;;;22.72;43.61;102990.28;6399864;22;45305;-77
2024/02/20 06:36:01;;;;;;;;;2.00;2.00;;;;;22.69;44.13;102990.53;6399639;22;45314;-77
2024/02/20 06:38:33;;;;;;;;;4.67;4.00;;;;;22.71;43.87;103002.75;6399856;22;45625;-77
2024/02/20 06:41:02;;;;;;;;;3.00;3.00;;;;;22.66;43.75;102991.66;6399643;22;45360;-77
2024/02/20 06:43:27;;;;;;;;;4.33;2.33;;;;;22.75;44.25;103016.56;6398667;22;46417;-78
2024/02/20 06:45:53;;;;;;;;;6.00;3.00;;;;;22.76;43.74;103020.06;6399540;22;45436;-78
2024/02/20 06:48:19;;;;;;;;;4.00;2.67;;;;;22.70;44.15;103013.47;6400033;22;45354;-78
2024/02/20 06:50:44;;;;;;;;;3.00;2.33;;;;;22.50;44.26;102982.34;6399916;22;45221;-78
2024/02/20 06:53:09;;;;;;;;;5.33;2.00;;;;;22.70;44.01;103013.47;6399514;22;45151;-77
2024/02/20 06:55:34;;;;;;;;;4.67;3.67;;;;;22.74;43.94;103017.56;6399551;22;45135;-77
2024/02/20 06:58:00;;;;;;;;;5.33;2.00;;;;;22.67;44.19;103011.03;6398472;22;53175;-77
2024/02/20 07:00:26;;;;;;;;;4.00;4.00;;;;;22.74;43.99;103026.34;6399271;22;45313;-78
2024/02/20 07:02:51;;;;;;;;;5.67;4.67;;;;;22.74;43.72;103028.97;6399485;22;45351;-77
2024/02/20 07:05:16;;;;;;;;;4.00;4.00;;;;;22.73;44.20;103027.31;6399579;22;45212;-74
2024/02/20 07:07:44;;;;;;;;;3.00;3.00;;;;;22.74;43.82;103028.97;6399907;22;45154;-76
2024/02/20 07:10:10;;;;;;;;;3.67;2.67;;;;;22.74;44.21;103025.50;6399506;22;45328;-75
2024/02/20 07:12:35;;;;;;;;;3.00;3.00;;;;;22.73;43.39;103029.13;6398328;22;46076;-76
2024/02/20 07:15:02;;;;;;;;;3.67;3.00;;;;;22.73;43.78;103031.78;6397189;22;45346;-76
2024/02/20 07:17:28;;;;;;;;;3.33;2.67;;;;;22.76;43.86;103035.97;6398388;22;45256;-77
2024/02/20 07:19:54;;;;;;;;;4.00;3.00;;;;;22.77;43.84;103033.19;6398197;22;45376;-81
2024/02/20 07:22:20;;;;;;;;;3.33;2.00;;;;;22.77;44.42;103035.03;6397980;22;45351;-78
2024/02/20 07:24:45;;;;;;;;;6.67;4.00;;;;;22.78;44.42;103029.56;6397537;22;45328;-79
2024/02/20 07:27:10;;;;;;;;;3.00;3.00;;;;;22.78;44.03;103026.91;6370014;22;45270;-81
2024/02/20 07:29:40;;;;;;;;;3.00;2.00;;;;;22.78;44.45;103024.25;6399221;22;45195;-75
2024/02/20 07:32:06;;;;;;;;;4.00;2.00;;;;;22.76;44.78;103020.91;6397981;22;47001;-76
2024/02/20 07:34:31;;;;;;;;;7.33;3.33;;;;;22.51;44.35;102977.88;6398164;22;49880;-76
2024/02/20 07:36:56;;;;;;;;;3.67;3.33;;;;;22.80;44.62;103032.09;6398673;22;45278;-76
2024/02/20 07:39:22;;;;;;;;;3.00;3.00;;;;;22.81;44.74;103036.44;6399119;22;45167;-77
2024/02/20 07:41:47;;;;;;;;;4.00;3.00;;;;;22.81;44.83;103033.78;6369247;22;46989;-76
2024/02/20 07:44:12;;;;;;;;;6.33;3.00;;;;;22.81;44.79;103028.47;6399020;22;45215;-78
2024/02/20 07:46:38;;;;;;;;;4.00;2.33;;;;;22.80;44.56;103024.97;6397679;22;49593;-78
2024/02/20 07:49:03;;;;;;;;;2.67;2.67;;;;;22.80;44.41;103027.63;6399424;22;45740;-79
2024/02/20 07:51:29;;;;;;;;;2.67;2.67;;;;;22.66;44.99;103002.25;6371333;22;57190;-79
2024/02/20 07:53:55;;;;;;;;;5.33;5.00;;;;;22.81;44.54;103020.50;6394899;22;45251;-75
2024/02/20 07:56:24;;;;;;;;;3.67;3.00;;;;;22.65;44.48;102999.72;6390942;22;45255;-76
2024/02/20 07:58:50;;;;;;;;;2.67;2.67;;;;;22.80;44.93;103029.44;6396995;22;45363;-76
2024/02/20 08:01:15;;;;;;;;;6.67;4.00;;;;;22.79;44.81;103031.28;6396493;22;46057;-75
2024/02/20 08:03:41;;;;;;;;;3.00;3.00;;;;;22.79;44.58;103028.63;6396691;22;45849;-76
2024/02/20 08:06:06;;;;;;;;;3.00;2.00;;;;;22.71;44.58;103004.53;6396755;22;45758;-75
2024/02/20 08:08:31;;;;;;;;;2.67;2.00;;;;;22.78;44.38;103018.97;6396848;22;45407;-76
2024/02/20 08:10:57;;;;;;;;;5.67;4.00;;;;;22.79;44.17;103020.66;6395708;22;46113;-76
2024/02/20 08:13:24;;;;;;;;;4.33;3.00;;;;;22.74;44.12;103005.09;6396882;22;45300;-76
2024/02/20 08:15:49;;;;;;;;;5.33;3.00;;;;;22.62;44.26;102996.38;6396901;22;45342;-76
2024/02/20 08:18:14;;;;;;;;;4.00;2.33;;;;;22.78;44.64;103018.97;6396880;22;45452;-76
2024/02/20 08:20:39;;;;;;;;;3.67;2.67;;;;;22.78;44.76;103015.47;6396565;22;48536;-76
2024/02/20 08:23:05;;;;;;;;;5.33;3.00;;;;;22.65;44.58;103000.56;6395492;22;51548;-76
2024/02/20 08:25:30;;;;;;;;;5.33;4.00;;;;;22.78;44.76;103031.38;6396096;22;45350;-76
2024/02/20 08:27:55;;;;;;;;;2.00;2.00;;;;;22.60;44.80;102995.66;6396640;22;45314;-75
2024/02/20 08:30:23;;;;;;;;;4.00;2.00;;;;;22.77;44.57;103029.72;6395789;22;46163;-76
2024/02/20 08:32:49;;;;;;;;;3.00;2.00;;;;;22.68;44.49;103015.38;6396647;22;45323;-76
2024/02/20 08:35:14;;;;;;;;;4.00;4.00;;;;;22.77;44.08;103021.75;6397020;22;45842;-76
2024/02/20 08:37:39;;;;;;;;;5.00;3.00;;;;;22.57;44.03;102995.06;6396746;22;45917;-76
2024/02/20 08:40:06;;;;;;;;;3.00;3.00;;;;;22.77;44.51;103030.53;6395884;22;46922;-75
2024/02/20 08:42:32;;;;;;;;;4.33;3.00;;;;;22.77;44.12;103030.53;6396216;22;45321;-76
2024/02/20 08:44:57;;;;;;;;;3.00;3.00;;;;;22.48;44.16;102980.81;6367506;22;45411;-76
2024/02/20 08:47:22;;;;;;;;;3.00;3.00;;;;;22.78;44.50;103026.91;6396454;22;45447;-75
2024/02/20 08:49:49;;;;;;;;;5.67;4.00;;;;;22.61;44.26;103009.78;6396154;22;46763;-76
2024/02/20 08:52:15;;;;;;;;;3.00;3.00;;;;;22.77;44.42;103027.88;6397023;22;45276;-76
2024/02/20 08:54:40;;;;;;;;;4.00;4.00;;;;;22.76;44.32;103028.88;6367509;22;45376;-75
2024/02/20 08:57:05;;;;;;;;;2.33;2.33;;;;;22.69;44.42;103017.91;6395664;22;50109;-75
2024/02/20 08:59:31;;;;;;;;;4.67;2.67;;;;;22.79;43.83;103041.88;6396328;22;45274;-75
2024/02/20 09:01:56;;;;;;;;;5.67;2.33;;;;;22.79;43.73;103041.88;6396096;22;45331;-76
2024/02/20 09:04:26;;;;;;;;;4.33;4.00;;;;;22.77;44.08;103032.38;6396897;22;45371;-76
2024/02/20 09:06:52;;;;;;;;;4.00;2.67;;;;;22.80;44.20;103029.44;6396526;22;45719;-77
2024/02/20 09:09:17;;;;;;;;;2.00;2.00;;;;;22.67;43.99;103008.38;6395852;22;46843;-76
2024/02/20 09:11:42;;;;;;;;;4.00;2.00;;;;;22.81;44.42;103029.31;6396617;22;45378;-75
2024/02/20 09:14:07;;;;;;;;;2.00;2.00;;;;;22.61;43.94;102992.00;6396679;22;45346;-76
2024/02/20 09:16:33;;;;;;;;;5.67;3.67;;;;;22.83;43.68;103026.53;6367934;22;45843;-76
2024/02/20 09:19:00;;;;;;;;;4.00;4.00;;;;;22.70;44.10;103011.66;6395856;22;48122;-76
2024/02/20 09:21:25;;;;;;;;;2.00;2.00;;;;;22.84;44.35;103029.06;6395358;22;45291;-76
2024/02/20 09:23:51;;;;;;;;;2.67;2.67;;;;;22.85;43.68;103027.22;6395210;22;54794;-76
2024/02/20 09:26:20;;;;;;;;;2.00;2.00;;;;;22.79;44.12;103022.47;6396469;22;45298;-77
2024/02/20 09:28:45;;;;;;;;;5.00;2.00;;;;;22.85;44.52;103028.06;6395627;22;46338;-76
2024/02/20 09:31:11;;;;;;;;;4.00;3.00;;;;;22.84;43.81;103018.44;6396089;22;45419;-76
2024/02/20 09:33:36;;;;;;;;;6.00;2.00;;;;;22.85;43.88;103012.13;6396274;22;45326;-76
2024/02/20 09:36:02;;;;;;;;;3.00;2.00;;;;;22.87;44.10;103000.56;6367300;22;45323;-76
2024/02/20 09:38:27;;;;;;;;;1.33;0.00;;;;;22.77;43.92;102980.13;6395619;22;47744;-76
2024/02/20 09:40:53;;;;;;;;;4.33;2.33;;;;;22.74;43.72;102967.13;6395600;22;45315;-77
2024/02/20 09:43:18;;;;;;;;;2.33;2.00;;;;;22.76;43.52;102965.19;6396088;22;45320;-77
2024/02/20 09:45:44;;;;;;;;;3.33;3.33;;;;;22.74;43.83;102965.28;6396644;22;45530;-77
2024/02/20 09:48:10;;;;;;;;;3.00;2.00;;;;;22.91;43.52;102994.00;6395681;22;47211;-76
2024/02/20 09:50:40;;;;;;;;;5.00;3.00;;;;;22.88;43.83;102989.81;6395817;22;45297;-77
2024/02/20 09:53:07;;;;;;;;;5.67;3.00;;;;;22.81;44.09;102986.00;6395771;22;45284;-77
2024/02/20 09:55:33;;;;;;;;;5.00;3.67;;;;;22.91;43.95;102999.31;6396627;22;45452;-76
2024/02/20 09:57:59;;;;;;;;;4.67;3.33;;;;;22.93;43.70;102986.75;6394711;22;47005;-77
2024/02/20 10:00:24;;;;;;;;;5.00;3.00;;;;;22.88;43.37;102970.38;6395470;22;45357;-76
2024/02/20 10:02:52;;;;;;;;;2.67;2.00;;;;;22.77;43.58;102950.09;6396668;22;45655;-77
2024/02/20 10:05:18;;;;;;;;;3.00;2.33;;;;;22.93;43.65;102971.66;6396675;22;45211;-77
2024/02/20 10:07:44;;;;;;;;;4.00;3.00;;;;;22.90;43.81;102971.09;6367477;22;47073;-77
2024/02/20 10:10:11;;;;;;;;;5.00;2.00;;;;;22.85;43.53;102960.88;6395836;22;45428;-77
2024/02/20 10:12:39;;;;;;;;;3.33;3.33;;;;;22.89;43.74;102969.41;6395614;22;45879;-76
2024/02/20 10:15:13;;;;;;;;;2.00;1.67;;;;;22.92;43.33;102963.84;6395614;22;45539;-76
2024/02/20 10:17:39;;;;;;;;;4.67;2.00;;;;;22.91;43.71;102962.16;6395353;22;46123;-76
2024/02/20 10:20:12;;;;;;;;;3.00;3.00;;;;;22.76;43.60;102936.00;6396154;22;45497;-76
2024/02/20 10:22:41;;;;;;;;;3.67;2.33;;;;;22.81;43.80;102940.88;6396113;22;45462;-76
2024/02/20 10:25:08;;;;;;;;;5.67;3.00;;;;;22.90;43.71;102969.28;6395434;22;45870;-76
2024/02/20 10:27:35;;;;;;;;;2.67;2.00;;;;;22.77;43.47;102947.44;6396040;22;45152;-76
2024/02/20 10:30:05;;;;;;;;;3.00;2.00;;;;;22.81;43.82;102952.34;6395386;22;45330;-76
2024/02/20 10:32:34;;;;;;;;;4.00;4.00;;;;;22.89;43.62;102964.09;6396277;22;45316;-76
2024/02/20 10:35:01;;;;;;;;;4.00;3.67;;;;;22.89;43.50;102950.84;6394250;22;45502;-76
2024/02/20 10:37:27;;;;;;;;;3.00;3.00;;;;;22.77;43.92;102942.97;6396233;22;45555;-76
2024/02/20 10:40:12;;;;;;;;;1.00;1.00;;;;;22.79;43.33;102953.47;6395164;22;45420;-77
2024/02/20 10:42:39;;;;;;;;;5.00;2.00;;;;;22.89;43.88;102969.41;6395629;22;45430;-76
2024/02/20 10:45:10;;;;;;;;;4.67;3.00;;;;;22.80;44.04;102963.09;6395767;22;45168;-76
2024/02/20 10:47:39;;;;;;;;;2.33;2.00;;;;;22.69;43.35;102951.56;6395883;22;47315;-77
2024/02/20 10:50:07;;;;;;;;;3.00;3.00;;;;;22.82;44.00;102977.91;6395392;22;45533;-76
2024/02/20 10:52:34;;;;;;;;;2.00;2.00;;;;;22.81;43.94;102983.34;6395431;22;45230;-76
2024/02/20 10:55:05;;;;;;;;;2.00;2.00;;;;;22.89;43.45;102985.34;6395657;22;45245;-76
2024/02/20 10:57:32;;;;;;;;;1.00;1.00;;;;;22.85;44.07;102982.09;6394813;22;45849;-77
2024/02/20 11:00:00;;;;;;;;;2.33;2.33;;;;;22.72;43.54;102950.47;6395167;22;45729;-78
2024/02/20 11:02:27;;;;;;;;;5.00;3.00;;;;;22.89;43.58;102975.56;6395637;22;45615;-76
2024/02/20 11:04:53;;;;;;;;;1.33;1.00;;;;;22.90;43.58;102971.91;6394692;22;45399;-77
2024/02/20 11:07:19;;;;;;;;;5.00;3.00;;;;;22.91;43.73;102978.06;6396028;22;45351;-77
2024/02/20 11:10:22;;;;;;;;;3.00;3.00;;;;;22.91;43.97;102978.91;6396181;22;45496;-77
2024/02/20 11:12:49;;;;;;;;;4.00;2.33;;;;;22.91;43.68;102978.91;6374778;22;45709;-76
2024/02/20 11:15:20;;;;;;;;;3.67;3.00;;;;;22.65;43.65;102933.38;6395981;22;45446;-76
2024/02/20 11:17:54;;;;;;;;;3.67;2.33;;;;;22.90;43.11;102971.91;6396249;22;45291;-77